London Corbin Airport Magee Field
KLOZ : rendu visible

Aérodrome :











RETROUVEZ-NOUS SUR...

 
LOGIN :

S'inscrire | Disclaimer

   EN    FR    IT 

 









Légende :    VFR   VFR Marginal   IFR   IFR Intensif   IFR Très Intensif
Visi : 
Plafond : 
>= 8 km
>= 3000ft
5 à 8 km
1000 à 3000 ft
1500m à 5 km
500 à 1000 ft
800 à 1500m
200 à 500 ft
< 800m
< 200 ft
Symboles :   Orages  Brouillard  Fortes neiges  Fortes précipitations  Vent > 20 kt






- Altitude de l'aérodrome : 1212 ft


KLOZ - London Corbin Magee Field

DERNIER METAR :
  • 191153Z AUTO 00000KT 10SM CLR 03/01 A2983 RMK AO2 SLP103 T00280006 10050 20022 53001 $

METARs EXPIRÉS :
  • 191053Z AUTO 00000KT 10SM CLR 02/01 A2982 RMK AO2 SLP101 T00220006 $
  • 190953Z AUTO 17003KT 10SM CLR 03/01 A2982 RMK AO2 SLP100 T00280006 $

TAF KLOZ
Valide du 19 à 12h jusqu'au 20 à 12h UTC


191135Z 1912/2012 VRB03KT P6SM BKN200
FM191800 22006KT P6SM -RA BKN050
FM192200 VRB04KT P6SM -RA OVC028
FM200200 VRB03KT P6SM OVC016
FM200600 VRB03KT P6SM BKN009



MET'MAP, la Météo Aéronautique d'un coup d'oeil ! - Copyright ORBIFLY Décembre 2007 - Disclaimer

ORBIFLY MET'MAP TEAM :

Programmation & Développement : Alexandra Zaïnal
Conception & Développement : Baudouin d'Aumeries
Co-Programmation & Développement : Marc-Olivier Méhu
Soutien technique & logistique : Manuel Goepfert

Contact : metmap@orbifly.com




SOURCES & CREDITS :

   NOAA       Earth
Advisory